sensor_id;sensor_type;location;lat;lon;timestamp;temperature;humidity
45207;DHT22;30950;53.086;21.576;2024-02-23T00:00:07;8.30;99.90
45207;DHT22;30950;53.086;21.576;2024-02-23T00:02:35;8.30;99.90
45207;DHT22;30950;53.086;21.576;2024-02-23T00:05:03;8.30;99.90
45207;DHT22;30950;53.086;21.576;2024-02-23T00:07:31;8.30;99.90
45207;DHT22;30950;53.086;21.576;2024-02-23T00:09:58;8.30;99.90
45207;DHT22;30950;53.086;21.576;2024-02-23T00:12:25;8.30;99.90
45207;DHT22;30950;53.086;21.576;2024-02-23T00:14:52;8.30;99.90
45207;DHT22;30950;53.086;21.576;2024-02-23T00:17:20;8.20;99.90
45207;DHT22;30950;53.086;21.576;2024-02-23T00:19:47;8.20;99.90
45207;DHT22;30950;53.086;21.576;2024-02-23T00:22:16;8.10;99.90
45207;DHT22;30950;53.086;21.576;2024-02-23T00:24:43;8.30;99.90
45207;DHT22;30950;53.086;21.576;2024-02-23T00:27:10;8.30;99.90
45207;DHT22;30950;53.086;21.576;2024-02-23T00:29:37;8.30;99.90
45207;DHT22;30950;53.086;21.576;2024-02-23T00:32:05;8.30;99.90
45207;DHT22;30950;53.086;21.576;2024-02-23T00:34:32;8.30;99.90
45207;DHT22;30950;53.086;21.576;2024-02-23T00:36:59;8.30;99.90
45207;DHT22;30950;53.086;21.576;2024-02-23T00:39:27;8.30;99.90
45207;DHT22;30950;53.086;21.576;2024-02-23T00:41:54;8.30;99.90
45207;DHT22;30950;53.086;21.576;2024-02-23T00:44:21;8.30;99.90
45207;DHT22;30950;53.086;21.576;2024-02-23T00:46:48;8.40;99.90
45207;DHT22;30950;53.086;21.576;2024-02-23T00:49:16;8.40;99.90
45207;DHT22;30950;53.086;21.576;2024-02-23T00:51:43;8.40;99.90
45207;DHT22;30950;53.086;21.576;2024-02-23T00:54:11;8.40;99.90
45207;DHT22;30950;53.086;21.576;2024-02-23T00:56:38;8.40;99.90
45207;DHT22;30950;53.086;21.576;2024-02-23T00:59:17;8.40;99.90
45207;DHT22;30950;53.086;21.576;2024-02-23T01:01:45;8.40;99.90
45207;DHT22;30950;53.086;21.576;2024-02-23T01:04:12;8.40;99.90
45207;DHT22;30950;53.086;21.576;2024-02-23T01:06:39;8.40;99.90
45207;DHT22;30950;53.086;21.576;2024-02-23T01:09:07;8.50;99.90
45207;DHT22;30950;53.086;21.576;2024-02-23T01:11:34;8.40;99.90
45207;DHT22;30950;53.086;21.576;2024-02-23T01:14:01;8.40;99.90
45207;DHT22;30950;53.086;21.576;2024-02-23T01:16:28;8.40;99.90
45207;DHT22;30950;53.086;21.576;2024-02-23T01:18:56;8.40;99.90
45207;DHT22;30950;53.086;21.576;2024-02-23T01:21:23;8.40;99.90
45207;DHT22;30950;53.086;21.576;2024-02-23T01:23:51;8.40;99.90
45207;DHT22;30950;53.086;21.576;2024-02-23T01:26:18;8.30;99.90
45207;DHT22;30950;53.086;21.576;2024-02-23T01:28:45;8.20;99.90
45207;DHT22;30950;53.086;21.576;2024-02-23T01:31:12;8.20;99.90
45207;DHT22;30950;53.086;21.576;2024-02-23T01:33:40;8.10;99.90
45207;DHT22;30950;53.086;21.576;2024-02-23T01:36:07;8.10;99.90
45207;DHT22;30950;53.086;21.576;2024-02-23T01:38:35;8.10;99.90
45207;DHT22;30950;53.086;21.576;2024-02-23T01:41:02;8.10;99.90
45207;DHT22;30950;53.086;21.576;2024-02-23T01:43:30;8.10;99.90
45207;DHT22;30950;53.086;21.576;2024-02-23T01:45:57;8.10;99.90
45207;DHT22;30950;53.086;21.576;2024-02-23T01:48:24;8.10;99.90
45207;DHT22;30950;53.086;21.576;2024-02-23T01:50:52;8.20;99.90
45207;DHT22;30950;53.086;21.576;2024-02-23T01:53:20;8.20;99.90
45207;DHT22;30950;53.086;21.576;2024-02-23T01:55:48;8.20;99.90
45207;DHT22;30950;53.086;21.576;2024-02-23T01:58:15;8.20;99.90
45207;DHT22;30950;53.086;21.576;2024-02-23T02:00:43;8.20;99.90
45207;DHT22;30950;53.086;21.576;2024-02-23T02:03:10;8.30;99.90
45207;DHT22;30950;53.086;21.576;2024-02-23T02:05:39;8.30;99.90
45207;DHT22;30950;53.086;21.576;2024-02-23T02:08:06;8.30;99.90
45207;DHT22;30950;53.086;21.576;2024-02-23T02:10:34;8.30;99.90
45207;DHT22;30950;53.086;21.576;2024-02-23T02:13:02;8.30;99.90
45207;DHT22;30950;53.086;21.576;2024-02-23T02:15:30;8.40;99.90
45207;DHT22;30950;53.086;21.576;2024-02-23T02:17:57;8.40;99.90
45207;DHT22;30950;53.086;21.576;2024-02-23T02:20:25;8.40;99.90
45207;DHT22;30950;53.086;21.576;2024-02-23T02:22:53;8.40;99.90
45207;DHT22;30950;53.086;21.576;2024-02-23T02:25:21;8.40;99.90
45207;DHT22;30950;53.086;21.576;2024-02-23T02:27:48;8.40;99.90
45207;DHT22;30950;53.086;21.576;2024-02-23T02:30:15;8.50;99.90
45207;DHT22;30950;53.086;21.576;2024-02-23T02:32:43;8.50;99.90
45207;DHT22;30950;53.086;21.576;2024-02-23T02:35:10;8.50;99.90
45207;DHT22;30950;53.086;21.576;2024-02-23T02:37:39;8.50;99.90
45207;DHT22;30950;53.086;21.576;2024-02-23T02:40:06;8.50;99.90
45207;DHT22;30950;53.086;21.576;2024-02-23T02:42:33;8.50;99.90
45207;DHT22;30950;53.086;21.576;2024-02-23T02:45:01;8.60;99.90
45207;DHT22;30950;53.086;21.576;2024-02-23T02:47:30;8.50;99.90
45207;DHT22;30950;53.086;21.576;2024-02-23T02:49:57;8.50;99.90
45207;DHT22;30950;53.086;21.576;2024-02-23T02:52:25;8.60;99.90
45207;DHT22;30950;53.086;21.576;2024-02-23T02:54:52;8.60;99.90
45207;DHT22;30950;53.086;21.576;2024-02-23T02:57:20;8.60;99.90
45207;DHT22;30950;53.086;21.576;2024-02-23T02:59:47;8.60;99.90
45207;DHT22;30950;53.086;21.576;2024-02-23T03:02:17;8.60;99.90
45207;DHT22;30950;53.086;21.576;2024-02-23T03:04:47;8.60;99.90
45207;DHT22;30950;53.086;21.576;2024-02-23T03:07:18;8.60;99.90
45207;DHT22;30950;53.086;21.576;2024-02-23T03:09:45;8.60;99.90
45207;DHT22;30950;53.086;21.576;2024-02-23T03:12:13;8.60;99.90
45207;DHT22;30950;53.086;21.576;2024-02-23T03:14:40;8.70;99.90
45207;DHT22;30950;53.086;21.576;2024-02-23T03:17:08;8.60;99.90
45207;DHT22;30950;53.086;21.576;2024-02-23T03:19:37;8.60;99.90
45207;DHT22;30950;53.086;21.576;2024-02-23T03:22:04;8.70;99.90
45207;DHT22;30950;53.086;21.576;2024-02-23T03:24:32;8.70;99.90
45207;DHT22;30950;53.086;21.576;2024-02-23T03:26:59;8.70;99.90
45207;DHT22;30950;53.086;21.576;2024-02-23T03:29:27;8.70;99.90
45207;DHT22;30950;53.086;21.576;2024-02-23T03:31:57;8.70;99.90
45207;DHT22;30950;53.086;21.576;2024-02-23T03:34:25;8.70;99.90
45207;DHT22;30950;53.086;21.576;2024-02-23T03:36:52;8.70;99.90
45207;DHT22;30950;53.086;21.576;2024-02-23T03:39:20;9.90;99.90
45207;DHT22;30950;53.086;21.576;2024-02-23T03:41:47;8.70;99.90
45207;DHT22;30950;53.086;21.576;2024-02-23T03:44:14;8.70;99.90
45207;DHT22;30950;53.086;21.576;2024-02-23T03:46:41;8.70;99.90
45207;DHT22;30950;53.086;21.576;2024-02-23T03:49:09;8.80;99.90
45207;DHT22;30950;53.086;21.576;2024-02-23T03:51:36;8.80;99.90
45207;DHT22;30950;53.086;21.576;2024-02-23T03:54:06;8.80;99.90
45207;DHT22;30950;53.086;21.576;2024-02-23T03:56:40;8.80;99.90
45207;DHT22;30950;53.086;21.576;2024-02-23T03:59:08;8.80;99.90
45207;DHT22;30950;53.086;21.576;2024-02-23T04:01:39;8.80;99.90
45207;DHT22;30950;53.086;21.576;2024-02-23T04:04:06;8.80;99.90
45207;DHT22;30950;53.086;21.576;2024-02-23T04:06:34;8.80;99.90
45207;DHT22;30950;53.086;21.576;2024-02-23T04:09:02;8.90;99.90
45207;DHT22;30950;53.086;21.576;2024-02-23T04:11:32;8.90;99.90
45207;DHT22;30950;53.086;21.576;2024-02-23T04:14:00;8.90;99.90
45207;DHT22;30950;53.086;21.576;2024-02-23T04:16:28;8.90;99.90
45207;DHT22;30950;53.086;21.576;2024-02-23T04:18:55;8.90;99.90
45207;DHT22;30950;53.086;21.576;2024-02-23T04:21:23;9.00;99.90
45207;DHT22;30950;53.086;21.576;2024-02-23T04:23:51;8.90;99.90
45207;DHT22;30950;53.086;21.576;2024-02-23T04:26:18;8.90;99.90
45207;DHT22;30950;53.086;21.576;2024-02-23T04:28:45;9.00;99.90
45207;DHT22;30950;53.086;21.576;2024-02-23T04:31:13;9.00;99.90
45207;DHT22;30950;53.086;21.576;2024-02-23T04:33:40;8.90;99.90
45207;DHT22;30950;53.086;21.576;2024-02-23T04:36:08;8.90;99.90
45207;DHT22;30950;53.086;21.576;2024-02-23T04:38:35;8.80;99.90
45207;DHT22;30950;53.086;21.576;2024-02-23T04:41:03;8.70;99.90
45207;DHT22;30950;53.086;21.576;2024-02-23T04:43:31;8.70;99.90
45207;DHT22;30950;53.086;21.576;2024-02-23T04:45:59;8.60;99.90
45207;DHT22;30950;53.086;21.576;2024-02-23T04:48:26;8.50;99.90
45207;DHT22;30950;53.086;21.576;2024-02-23T04:50:53;8.40;99.90
45207;DHT22;30950;53.086;21.576;2024-02-23T04:53:20;8.30;99.90
45207;DHT22;30950;53.086;21.576;2024-02-23T04:55:48;8.30;99.90
45207;DHT22;30950;53.086;21.576;2024-02-23T04:58:15;8.20;99.90
45207;DHT22;30950;53.086;21.576;2024-02-23T05:00:42;8.10;99.90
45207;DHT22;30950;53.086;21.576;2024-02-23T05:03:09;8.10;99.90
45207;DHT22;30950;53.086;21.576;2024-02-23T05:05:39;8.10;99.90
45207;DHT22;30950;53.086;21.576;2024-02-23T05:08:07;8.10;99.90
45207;DHT22;30950;53.086;21.576;2024-02-23T05:10:34;8.00;99.90
45207;DHT22;30950;53.086;21.576;2024-02-23T05:13:01;8.00;99.90
45207;DHT22;30950;53.086;21.576;2024-02-23T05:15:29;8.00;99.90
45207;DHT22;30950;53.086;21.576;2024-02-23T05:17:56;8.00;99.90
45207;DHT22;30950;53.086;21.576;2024-02-23T05:20:24;8.00;99.90
45207;DHT22;30950;53.086;21.576;2024-02-23T05:22:51;8.00;99.90
45207;DHT22;30950;53.086;21.576;2024-02-23T05:25:18;7.90;99.90
45207;DHT22;30950;53.086;21.576;2024-02-23T05:27:45;7.90;99.90
45207;DHT22;30950;53.086;21.576;2024-02-23T05:30:13;7.80;99.90
45207;DHT22;30950;53.086;21.576;2024-02-23T05:32:40;7.90;99.90
45207;DHT22;30950;53.086;21.576;2024-02-23T05:35:09;7.90;99.90
45207;DHT22;30950;53.086;21.576;2024-02-23T05:37:36;7.90;99.90
45207;DHT22;30950;53.086;21.576;2024-02-23T05:40:07;7.90;99.90
45207;DHT22;30950;53.086;21.576;2024-02-23T05:42:37;7.80;99.90
45207;DHT22;30950;53.086;21.576;2024-02-23T05:45:06;7.80;99.90
45207;DHT22;30950;53.086;21.576;2024-02-23T05:47:38;7.80;99.90
45207;DHT22;30950;53.086;21.576;2024-02-23T05:50:09;7.80;99.90
45207;DHT22;30950;53.086;21.576;2024-02-23T05:52:36;7.90;99.90
45207;DHT22;30950;53.086;21.576;2024-02-23T05:55:03;7.90;99.90
45207;DHT22;30950;53.086;21.576;2024-02-23T05:57:31;7.80;99.90
45207;DHT22;30950;53.086;21.576;2024-02-23T05:59:59;7.80;99.90
45207;DHT22;30950;53.086;21.576;2024-02-23T06:02:26;7.80;99.90
45207;DHT22;30950;53.086;21.576;2024-02-23T06:04:53;7.90;99.90
45207;DHT22;30950;53.086;21.576;2024-02-23T06:07:21;7.80;99.90
45207;DHT22;30950;53.086;21.576;2024-02-23T06:09:55;7.80;99.90
45207;DHT22;30950;53.086;21.576;2024-02-23T06:12:23;7.80;99.90
45207;DHT22;30950;53.086;21.576;2024-02-23T06:14:50;7.90;99.90
45207;DHT22;30950;53.086;21.576;2024-02-23T06:17:18;7.90;99.90
45207;DHT22;30950;53.086;21.576;2024-02-23T06:19:46;7.90;99.90
45207;DHT22;30950;53.086;21.576;2024-02-23T06:22:13;7.90;99.90
45207;DHT22;30950;53.086;21.576;2024-02-23T06:24:42;7.90;99.90
45207;DHT22;30950;53.086;21.576;2024-02-23T06:27:09;7.90;99.90
45207;DHT22;30950;53.086;21.576;2024-02-23T06:29:36;8.00;99.90
45207;DHT22;30950;53.086;21.576;2024-02-23T06:32:04;8.00;99.90
45207;DHT22;30950;53.086;21.576;2024-02-23T06:34:31;8.00;99.90
45207;DHT22;30950;53.086;21.576;2024-02-23T06:36:58;8.00;99.90
45207;DHT22;30950;53.086;21.576;2024-02-23T06:39:26;8.00;99.90
45207;DHT22;30950;53.086;21.576;2024-02-23T06:41:53;8.00;99.90
45207;DHT22;30950;53.086;21.576;2024-02-23T06:44:20;8.00;99.90
45207;DHT22;30950;53.086;21.576;2024-02-23T06:46:47;8.00;99.90
45207;DHT22;30950;53.086;21.576;2024-02-23T06:49:15;8.00;99.90
45207;DHT22;30950;53.086;21.576;2024-02-23T06:51:42;8.00;99.90
45207;DHT22;30950;53.086;21.576;2024-02-23T06:54:09;8.00;99.90
45207;DHT22;30950;53.086;21.576;2024-02-23T06:56:36;8.00;99.90
45207;DHT22;30950;53.086;21.576;2024-02-23T06:59:04;8.00;99.90
45207;DHT22;30950;53.086;21.576;2024-02-23T07:01:31;8.00;99.90
45207;DHT22;30950;53.086;21.576;2024-02-23T07:04:02;8.10;99.90
45207;DHT22;30950;53.086;21.576;2024-02-23T07:06:29;8.10;99.90
45207;DHT22;30950;53.086;21.576;2024-02-23T07:08:59;8.10;99.90
45207;DHT22;30950;53.086;21.576;2024-02-23T07:11:26;8.10;99.90
45207;DHT22;30950;53.086;21.576;2024-02-23T07:13:53;8.10;99.90
45207;DHT22;30950;53.086;21.576;2024-02-23T07:16:21;8.10;99.90
45207;DHT22;30950;53.086;21.576;2024-02-23T07:18:48;8.10;99.90
45207;DHT22;30950;53.086;21.576;2024-02-23T07:21:19;8.10;99.90
45207;DHT22;30950;53.086;21.576;2024-02-23T07:23:46;8.10;99.90
45207;DHT22;30950;53.086;21.576;2024-02-23T07:26:13;8.10;99.90
45207;DHT22;30950;53.086;21.576;2024-02-23T07:28:40;8.10;99.90
45207;DHT22;30950;53.086;21.576;2024-02-23T07:31:07;8.10;99.90
45207;DHT22;30950;53.086;21.576;2024-02-23T07:33:37;8.20;99.90
45207;DHT22;30950;53.086;21.576;2024-02-23T07:36:04;8.10;99.90
45207;DHT22;30950;53.086;21.576;2024-02-23T07:38:32;8.20;99.90
45207;DHT22;30950;53.086;21.576;2024-02-23T07:40:59;8.60;99.90
45207;DHT22;30950;53.086;21.576;2024-02-23T07:43:26;8.20;99.90
45207;DHT22;30950;53.086;21.576;2024-02-23T07:45:56;8.20;99.90
45207;DHT22;30950;53.086;21.576;2024-02-23T07:48:23;8.20;99.90
45207;DHT22;30950;53.086;21.576;2024-02-23T07:50:50;8.20;99.90
45207;DHT22;30950;53.086;21.576;2024-02-23T07:53:18;8.20;99.90
45207;DHT22;30950;53.086;21.576;2024-02-23T07:55:45;8.30;99.90
45207;DHT22;30950;53.086;21.576;2024-02-23T07:58:12;8.30;99.90
45207;DHT22;30950;53.086;21.576;2024-02-23T08:00:39;8.30;99.90
45207;DHT22;30950;53.086;21.576;2024-02-23T08:03:07;8.30;99.90
45207;DHT22;30950;53.086;21.576;2024-02-23T08:05:35;8.30;99.90
45207;DHT22;30950;53.086;21.576;2024-02-23T08:08:03;8.30;99.90
45207;DHT22;30950;53.086;21.576;2024-02-23T08:10:30;8.30;99.90
45207;DHT22;30950;53.086;21.576;2024-02-23T08:12:58;8.30;99.90
45207;DHT22;30950;53.086;21.576;2024-02-23T08:15:25;8.30;99.90
45207;DHT22;30950;53.086;21.576;2024-02-23T08:17:53;8.40;99.90
45207;DHT22;30950;53.086;21.576;2024-02-23T08:20:20;8.40;99.90
45207;DHT22;30950;53.086;21.576;2024-02-23T08:22:48;8.40;99.90
45207;DHT22;30950;53.086;21.576;2024-02-23T08:25:15;8.40;99.90
45207;DHT22;30950;53.086;21.576;2024-02-23T08:27:43;8.50;99.90
45207;DHT22;30950;53.086;21.576;2024-02-23T08:30:10;8.50;99.90
45207;DHT22;30950;53.086;21.576;2024-02-23T08:32:38;8.40;99.90
45207;DHT22;30950;53.086;21.576;2024-02-23T08:35:05;8.50;99.90
45207;DHT22;30950;53.086;21.576;2024-02-23T08:37:33;8.50;99.90
45207;DHT22;30950;53.086;21.576;2024-02-23T08:40:00;8.50;99.90
45207;DHT22;30950;53.086;21.576;2024-02-23T08:42:28;8.50;99.90
45207;DHT22;30950;53.086;21.576;2024-02-23T08:44:55;8.50;99.90
45207;DHT22;30950;53.086;21.576;2024-02-23T08:47:23;8.50;99.90
45207;DHT22;30950;53.086;21.576;2024-02-23T08:49:51;8.50;99.90
45207;DHT22;30950;53.086;21.576;2024-02-23T08:52:18;8.60;99.90
45207;DHT22;30950;53.086;21.576;2024-02-23T08:54:45;8.60;99.90
45207;DHT22;30950;53.086;21.576;2024-02-23T08:57:13;8.60;99.90
45207;DHT22;30950;53.086;21.576;2024-02-23T08:59:44;8.60;99.90
45207;DHT22;30950;53.086;21.576;2024-02-23T09:02:12;8.40;99.90
45207;DHT22;30950;53.086;21.576;2024-02-23T09:04:39;8.60;99.90
45207;DHT22;30950;53.086;21.576;2024-02-23T09:07:06;8.60;99.90
45207;DHT22;30950;53.086;21.576;2024-02-23T09:09:34;8.60;99.90
45207;DHT22;30950;53.086;21.576;2024-02-23T09:12:01;8.70;99.90
45207;DHT22;30950;53.086;21.576;2024-02-23T09:14:29;8.80;99.90
45207;DHT22;30950;53.086;21.576;2024-02-23T09:16:57;8.70;99.90
45207;DHT22;30950;53.086;21.576;2024-02-23T09:19:24;8.70;99.90
45207;DHT22;30950;53.086;21.576;2024-02-23T09:21:51;8.70;99.90
45207;DHT22;30950;53.086;21.576;2024-02-23T09:24:18;8.80;99.90
45207;DHT22;30950;53.086;21.576;2024-02-23T09:26:46;8.80;99.90
45207;DHT22;30950;53.086;21.576;2024-02-23T09:29:14;8.80;99.90
45207;DHT22;30950;53.086;21.576;2024-02-23T09:31:41;8.80;99.90
45207;DHT22;30950;53.086;21.576;2024-02-23T09:34:08;8.80;99.90
45207;DHT22;30950;53.086;21.576;2024-02-23T09:36:36;8.90;99.90
45207;DHT22;30950;53.086;21.576;2024-02-23T09:39:03;9.00;99.90
45207;DHT22;30950;53.086;21.576;2024-02-23T09:41:31;9.00;99.90
45207;DHT22;30950;53.086;21.576;2024-02-23T09:44:00;9.10;99.90
45207;DHT22;30950;53.086;21.576;2024-02-23T09:46:28;9.10;99.90
45207;DHT22;30950;53.086;21.576;2024-02-23T09:48:56;9.20;99.90
45207;DHT22;30950;53.086;21.576;2024-02-23T09:51:23;9.20;99.90
45207;DHT22;30950;53.086;21.576;2024-02-23T09:53:52;9.30;99.90
45207;DHT22;30950;53.086;21.576;2024-02-23T09:56:21;9.40;99.90
45207;DHT22;30950;53.086;21.576;2024-02-23T09:58:48;9.40;99.90
45207;DHT22;30950;53.086;21.576;2024-02-23T10:01:18;9.50;99.90
45207;DHT22;30950;53.086;21.576;2024-02-23T10:03:48;9.60;99.90
45207;DHT22;30950;53.086;21.576;2024-02-23T10:06:15;9.70;99.90
45207;DHT22;30950;53.086;21.576;2024-02-23T10:08:42;9.70;99.90
45207;DHT22;30950;53.086;21.576;2024-02-23T10:11:09;9.80;99.90
45207;DHT22;30950;53.086;21.576;2024-02-23T10:13:38;9.80;99.90
45207;DHT22;30950;53.086;21.576;2024-02-23T10:16:05;9.90;99.90
45207;DHT22;30950;53.086;21.576;2024-02-23T10:18:42;10.00;99.90
45207;DHT22;30950;53.086;21.576;2024-02-23T10:21:09;10.00;99.90
45207;DHT22;30950;53.086;21.576;2024-02-23T10:23:36;10.00;99.90
45207;DHT22;30950;53.086;21.576;2024-02-23T10:26:05;9.90;99.90
45207;DHT22;30950;53.086;21.576;2024-02-23T10:28:34;9.90;99.90
45207;DHT22;30950;53.086;21.576;2024-02-23T10:31:02;10.00;99.90
45207;DHT22;30950;53.086;21.576;2024-02-23T10:33:29;10.00;99.90
45207;DHT22;30950;53.086;21.576;2024-02-23T10:35:58;10.00;99.90
45207;DHT22;30950;53.086;21.576;2024-02-23T10:38:27;10.10;99.90
45207;DHT22;30950;53.086;21.576;2024-02-23T10:40:56;9.60;99.90
45207;DHT22;30950;53.086;21.576;2024-02-23T10:43:44;10.10;99.90
45207;DHT22;30950;53.086;21.576;2024-02-23T10:46:12;10.10;99.90
45207;DHT22;30950;53.086;21.576;2024-02-23T10:48:43;10.10;99.90
45207;DHT22;30950;53.086;21.576;2024-02-23T10:51:13;10.20;99.90
45207;DHT22;30950;53.086;21.576;2024-02-23T10:53:44;10.20;99.90
45207;DHT22;30950;53.086;21.576;2024-02-23T10:56:13;10.30;99.90
45207;DHT22;30950;53.086;21.576;2024-02-23T10:58:40;10.50;99.90
45207;DHT22;30950;53.086;21.576;2024-02-23T11:01:08;10.60;99.90
45207;DHT22;30950;53.086;21.576;2024-02-23T11:03:36;10.70;99.90
45207;DHT22;30950;53.086;21.576;2024-02-23T11:06:07;10.80;99.90
45207;DHT22;30950;53.086;21.576;2024-02-23T11:08:35;10.90;99.90
45207;DHT22;30950;53.086;21.576;2024-02-23T11:11:08;10.90;99.90
45207;DHT22;30950;53.086;21.576;2024-02-23T11:13:36;10.90;99.90
45207;DHT22;30950;53.086;21.576;2024-02-23T11:16:04;9.70;99.90
45207;DHT22;30950;53.086;21.576;2024-02-23T11:18:33;10.90;99.90
45207;DHT22;30950;53.086;21.576;2024-02-23T11:21:02;10.80;99.90
45207;DHT22;30950;53.086;21.576;2024-02-23T11:23:39;10.90;99.90
45207;DHT22;30950;53.086;21.576;2024-02-23T11:26:09;10.80;99.90
45207;DHT22;30950;53.086;21.576;2024-02-23T11:28:49;10.80;99.90
45207;DHT22;30950;53.086;21.576;2024-02-23T11:31:21;10.80;99.90
45207;DHT22;30950;53.086;21.576;2024-02-23T11:33:52;10.90;99.90
45207;DHT22;30950;53.086;21.576;2024-02-23T11:36:23;10.90;99.90
45207;DHT22;30950;53.086;21.576;2024-02-23T11:38:52;10.90;99.90
45207;DHT22;30950;53.086;21.576;2024-02-23T11:41:20;10.80;99.90
45207;DHT22;30950;53.086;21.576;2024-02-23T11:43:48;10.90;99.90
45207;DHT22;30950;53.086;21.576;2024-02-23T11:46:16;10.80;99.90
45207;DHT22;30950;53.086;21.576;2024-02-23T11:48:43;10.80;99.90
45207;DHT22;30950;53.086;21.576;2024-02-23T11:51:11;10.80;99.90
45207;DHT22;30950;53.086;21.576;2024-02-23T11:53:38;10.80;99.90
45207;DHT22;30950;53.086;21.576;2024-02-23T11:56:06;10.80;99.90
45207;DHT22;30950;53.086;21.576;2024-02-23T11:58:33;10.90;99.90
45207;DHT22;30950;53.086;21.576;2024-02-23T12:01:02;10.80;99.90
45207;DHT22;30950;53.086;21.576;2024-02-23T12:03:29;10.90;99.90
45207;DHT22;30950;53.086;21.576;2024-02-23T12:06:00;10.90;99.90
45207;DHT22;30950;53.086;21.576;2024-02-23T12:08:28;10.90;99.90
45207;DHT22;30950;53.086;21.576;2024-02-23T12:10:56;11.00;99.90
45207;DHT22;30950;53.086;21.576;2024-02-23T12:13:24;11.00;99.90
45207;DHT22;30950;53.086;21.576;2024-02-23T12:15:54;11.00;99.90
45207;DHT22;30950;53.086;21.576;2024-02-23T12:18:21;11.00;99.90
45207;DHT22;30950;53.086;21.576;2024-02-23T12:20:50;10.90;99.90
45207;DHT22;30950;53.086;21.576;2024-02-23T12:23:18;11.00;99.90
45207;DHT22;30950;53.086;21.576;2024-02-23T12:25:54;11.00;99.90
45207;DHT22;30950;53.086;21.576;2024-02-23T12:28:23;11.10;99.90
45207;DHT22;30950;53.086;21.576;2024-02-23T12:30:58;11.10;99.90
45207;DHT22;30950;53.086;21.576;2024-02-23T12:33:26;11.10;99.90
45207;DHT22;30950;53.086;21.576;2024-02-23T12:35:54;11.20;99.90
45207;DHT22;30950;53.086;21.576;2024-02-23T12:38:22;11.20;99.90
45207;DHT22;30950;53.086;21.576;2024-02-23T12:40:50;11.20;99.90
45207;DHT22;30950;53.086;21.576;2024-02-23T12:43:17;11.30;99.90
45207;DHT22;30950;53.086;21.576;2024-02-23T12:45:45;11.20;99.90
45207;DHT22;30950;53.086;21.576;2024-02-23T12:48:16;11.20;99.90
45207;DHT22;30950;53.086;21.576;2024-02-23T12:50:44;11.20;99.90
45207;DHT22;30950;53.086;21.576;2024-02-23T12:53:30;11.20;99.90
45207;DHT22;30950;53.086;21.576;2024-02-23T12:56:02;11.20;99.90
45207;DHT22;30950;53.086;21.576;2024-02-23T12:58:30;11.20;99.90
45207;DHT22;30950;53.086;21.576;2024-02-23T13:00:57;11.20;99.90
45207;DHT22;30950;53.086;21.576;2024-02-23T13:03:25;11.20;99.90
45207;DHT22;30950;53.086;21.576;2024-02-23T13:05:54;11.20;99.90
45207;DHT22;30950;53.086;21.576;2024-02-23T13:08:22;11.20;99.90
45207;DHT22;30950;53.086;21.576;2024-02-23T13:10:50;11.20;99.90
45207;DHT22;30950;53.086;21.576;2024-02-23T13:13:18;11.20;99.90
45207;DHT22;30950;53.086;21.576;2024-02-23T13:15:49;11.20;99.90
45207;DHT22;30950;53.086;21.576;2024-02-23T13:18:17;11.30;99.90
45207;DHT22;30950;53.086;21.576;2024-02-23T13:20:44;11.30;99.90
45207;DHT22;30950;53.086;21.576;2024-02-23T13:23:12;11.20;99.90
45207;DHT22;30950;53.086;21.576;2024-02-23T13:25:40;11.30;99.90
45207;DHT22;30950;53.086;21.576;2024-02-23T13:28:07;11.20;99.90
45207;DHT22;30950;53.086;21.576;2024-02-23T13:30:36;11.20;99.90
45207;DHT22;30950;53.086;21.576;2024-02-23T13:33:03;11.20;99.90
45207;DHT22;30950;53.086;21.576;2024-02-23T13:35:32;11.20;99.90
45207;DHT22;30950;53.086;21.576;2024-02-23T13:37:59;11.20;99.90
45207;DHT22;30950;53.086;21.576;2024-02-23T13:40:27;11.20;99.90
45207;DHT22;30950;53.086;21.576;2024-02-23T13:42:54;11.20;99.90
45207;DHT22;30950;53.086;21.576;2024-02-23T13:45:21;11.20;99.90
45207;DHT22;30950;53.086;21.576;2024-02-23T13:48:00;11.20;99.90
45207;DHT22;30950;53.086;21.576;2024-02-23T13:50:28;11.10;99.90
45207;DHT22;30950;53.086;21.576;2024-02-23T13:52:56;11.10;99.90
45207;DHT22;30950;53.086;21.576;2024-02-23T13:55:23;11.00;99.90
45207;DHT22;30950;53.086;21.576;2024-02-23T13:57:50;10.90;99.90
45207;DHT22;30950;53.086;21.576;2024-02-23T14:00:18;10.90;99.90
45207;DHT22;30950;53.086;21.576;2024-02-23T14:02:46;10.90;99.90
45207;DHT22;30950;53.086;21.576;2024-02-23T14:05:15;10.90;99.90
45207;DHT22;30950;53.086;21.576;2024-02-23T14:07:43;12.20;99.90
45207;DHT22;30950;53.086;21.576;2024-02-23T14:10:11;10.90;99.90
45207;DHT22;30950;53.086;21.576;2024-02-23T14:12:38;10.90;99.90
45207;DHT22;30950;53.086;21.576;2024-02-23T14:15:05;10.80;99.90
45207;DHT22;30950;53.086;21.576;2024-02-23T14:17:33;10.80;99.90
45207;DHT22;30950;53.086;21.576;2024-02-23T14:20:02;10.80;99.90
45207;DHT22;30950;53.086;21.576;2024-02-23T14:22:30;10.90;99.90
45207;DHT22;30950;53.086;21.576;2024-02-23T14:24:59;10.80;99.90
45207;DHT22;30950;53.086;21.576;2024-02-23T14:27:26;10.80;99.90
45207;DHT22;30950;53.086;21.576;2024-02-23T14:29:58;10.80;99.90
45207;DHT22;30950;53.086;21.576;2024-02-23T14:32:26;10.80;99.90
45207;DHT22;30950;53.086;21.576;2024-02-23T14:34:53;10.70;99.90
45207;DHT22;30950;53.086;21.576;2024-02-23T14:37:22;10.70;99.90
45207;DHT22;30950;53.086;21.576;2024-02-23T14:39:49;10.70;99.90
45207;DHT22;30950;53.086;21.576;2024-02-23T14:42:16;10.60;99.90
45207;DHT22;30950;53.086;21.576;2024-02-23T14:44:44;10.60;99.90
45207;DHT22;30950;53.086;21.576;2024-02-23T14:47:11;10.60;99.90
45207;DHT22;30950;53.086;21.576;2024-02-23T14:49:40;10.60;99.90
45207;DHT22;30950;53.086;21.576;2024-02-23T14:52:07;10.50;99.90
45207;DHT22;30950;53.086;21.576;2024-02-23T14:54:34;10.50;99.90
45207;DHT22;30950;53.086;21.576;2024-02-23T14:57:02;10.50;99.90
45207;DHT22;30950;53.086;21.576;2024-02-23T14:59:30;10.50;99.90
45207;DHT22;30950;53.086;21.576;2024-02-23T15:01:58;10.40;99.90
45207;DHT22;30950;53.086;21.576;2024-02-23T15:04:25;10.50;99.90
45207;DHT22;30950;53.086;21.576;2024-02-23T15:06:52;10.40;99.90
45207;DHT22;30950;53.086;21.576;2024-02-23T15:09:20;10.40;99.90
45207;DHT22;30950;53.086;21.576;2024-02-23T15:11:47;10.40;99.90
45207;DHT22;30950;53.086;21.576;2024-02-23T15:14:14;10.40;99.90
45207;DHT22;30950;53.086;21.576;2024-02-23T15:16:43;10.40;99.90
45207;DHT22;30950;53.086;21.576;2024-02-23T15:19:11;10.40;99.90
45207;DHT22;30950;53.086;21.576;2024-02-23T15:21:38;10.30;99.90
45207;DHT22;30950;53.086;21.576;2024-02-23T15:24:08;10.40;99.90
45207;DHT22;30950;53.086;21.576;2024-02-23T15:26:35;10.30;99.90
45207;DHT22;30950;53.086;21.576;2024-02-23T15:29:02;10.30;99.90